Time;durP1;ratioP1;P1;durP2;ratioP2;P2;SDS_P1;SDS_P2;PMS_P1;PMS_P2;Temp;Humidity;BMP_temperature;BMP_pressure;BME280_temperature;BME280_humidity;BME280_pressure;Samples;Min_cycle;Max_cycle;Signal;HPM_P1;HPM_P2
2022/07/31 00:00:47;;;;;;;8.93;4.13;;;;;;;21.03;73.87;101634.94;5176785;27;20423;-60
2022/07/31 00:03:15;;;;;;;7.45;4.28;;;;;;;20.94;74.34;101634.84;5157478;27;20046;-61
2022/07/31 00:05:43;;;;;;;7.28;3.85;;;;;;;20.91;73.34;101637.81;5157979;27;20038;-59
2022/07/31 00:08:15;;;;;;;10.63;3.92;;;;;;;20.88;73.30;101635.41;5176720;27;20065;-60
2022/07/31 00:10:43;;;;;;;7.43;3.60;;;;;;;20.87;72.50;101638.25;5176958;27;20081;-60
2022/07/31 00:13:13;;;;;;;6.43;3.67;;;;;;;20.83;73.96;101629.66;5176801;27;20038;-60
2022/07/31 00:15:42;;;;;;;8.50;3.70;;;;;;;20.82;74.04;101633.34;5158415;27;20068;-60
2022/07/31 00:18:10;;;;;;;7.05;3.65;;;;;;;20.80;74.83;101627.31;5176377;27;20432;-60
2022/07/31 00:20:38;;;;;;;7.40;3.70;;;;;;;20.77;74.12;101632.94;5174330;27;20042;-59
2022/07/31 00:23:06;;;;;;;5.85;3.53;;;;;;;20.72;74.26;101625.38;5172769;27;20074;-58
2022/07/31 00:25:39;;;;;;;7.93;3.70;;;;;;;20.69;74.01;101623.00;5174681;27;20056;-58
2022/07/31 00:28:07;;;;;;;8.15;3.75;;;;;;;20.66;74.34;101623.25;5175636;27;20134;-58
2022/07/31 00:30:35;;;;;;;6.53;3.60;;;;;;;20.58;74.69;101613.31;5175894;27;20042;-59
2022/07/31 00:33:03;;;;;;;7.88;3.15;;;;;;;20.54;74.35;101611.91;5176094;27;20038;-59
2022/07/31 00:35:31;;;;;;;7.13;3.08;;;;;;;20.50;75.92;101607.03;5175718;27;20370;-59
2022/07/31 00:37:59;;;;;;;5.90;2.97;;;;;;;20.52;76.24;101602.34;5175739;27;20046;-60
2022/07/31 00:40:49;;;;;;;7.57;3.72;;;;;;;20.52;76.81;101603.22;5174833;27;20042;-58
2022/07/31 00:43:18;;;;;;;7.60;3.75;;;;;;;20.43;76.81;101602.25;5175259;27;20038;-59
2022/07/31 00:45:46;;;;;;;5.15;2.88;;;;;;;20.43;77.64;101598.75;5175359;27;20039;-59
2022/07/31 00:48:26;;;;;;;7.50;3.20;;;;;;;20.37;78.29;101600.19;5175434;27;20050;-59
2022/07/31 00:50:55;;;;;;;7.07;3.20;;;;;;;20.33;79.43;101593.44;5172314;27;20129;-60
2022/07/31 00:53:23;;;;;;;7.30;3.40;;;;;;;20.35;78.43;101596.78;5172356;27;20066;-60
2022/07/31 00:55:52;;;;;;;9.93;3.60;;;;;;;20.31;79.22;101594.56;5175678;27;20034;-59
2022/07/31 00:58:20;;;;;;;7.90;3.13;;;;;;;20.32;79.76;101599.78;5175594;27;20137;-59
2022/07/31 01:00:48;;;;;;;7.13;3.03;;;;;;;20.30;79.21;101588.41;5175920;27;20069;-60
2022/07/31 01:03:17;;;;;;;7.68;3.22;;;;;;;20.25;79.05;101593.34;5175221;27;20524;-60
2022/07/31 01:05:45;;;;;;;7.35;3.15;;;;;;;20.19;78.92;101596.56;5172108;27;20057;-60
2022/07/31 01:08:14;;;;;;;7.63;3.25;;;;;;;20.14;79.62;101597.00;5172146;27;20038;-60
2022/07/31 01:10:50;;;;;;;7.78;2.85;;;;;;;20.17;79.82;101598.56;5175264;27;20043;-60
2022/07/31 01:13:30;;;;;;;6.90;3.20;;;;;;;20.12;80.75;101593.63;5175315;27;20042;-60
2022/07/31 01:16:01;;;;;;;6.20;3.03;;;;;;;20.03;81.85;101587.34;5175072;27;20046;-60
2022/07/31 01:18:33;;;;;;;6.53;3.35;;;;;;;20.03;80.56;101582.00;5173327;27;20475;-60
2022/07/31 01:21:05;;;;;;;6.75;3.10;;;;;;;20.01;81.59;101578.63;5172795;27;20042;-58
2022/07/31 01:23:49;;;;;;;7.88;3.10;;;;;;;19.96;81.35;101578.25;5156516;27;20042;-59
2022/07/31 01:26:36;;;;;;;6.45;3.22;;;;;;;19.93;81.53;101575.84;5175004;27;20400;-59
2022/07/31 01:29:14;;;;;;;5.93;2.97;;;;;;;19.87;81.21;101587.09;5174645;27;20056;-59
2022/07/31 01:31:46;;;;;;;6.20;2.90;;;;;;;19.84;80.95;101590.91;5152891;27;20042;-62
2022/07/31 01:34:24;;;;;;;9.63;3.58;;;;;;;19.71;82.11;101584.97;5173361;27;20042;-59
2022/07/31 01:36:59;;;;;;;10.63;3.22;;;;;;;19.68;81.92;101585.25;5174867;27;20038;-59
2022/07/31 01:39:32;;;;;;;6.93;3.20;;;;;;;19.69;82.48;101582.44;5174668;27;20049;-59
2022/07/31 01:42:04;;;;;;;6.75;2.90;;;;;;;19.64;82.62;101571.34;5174766;27;20056;-59
2022/07/31 01:44:41;;;;;;;6.23;3.00;;;;;;;19.56;82.31;101582.72;5172848;27;20050;-59
2022/07/31 01:47:11;;;;;;;7.75;3.25;;;;;;;19.55;82.81;101575.72;5152528;27;20054;-58
2022/07/31 01:49:41;;;;;;;7.50;3.17;;;;;;;19.51;83.97;101578.81;5174975;27;20049;-60
2022/07/31 01:52:11;;;;;;;7.75;3.20;;;;;;;19.52;83.40;101569.81;5176307;27;20405;-59
2022/07/31 01:54:40;;;;;;;6.13;3.05;;;;;;;19.58;82.68;101566.59;5179605;27;20046;-58
2022/07/31 01:57:10;;;;;;;8.40;3.50;;;;;;;19.39;84.16;101557.63;5177590;27;20450;-60
2022/07/31 01:59:48;;;;;;;7.32;2.88;;;;;;;19.44;84.67;101562.50;5176452;27;20519;-58
2022/07/31 02:02:22;;;;;;;4.97;2.78;;;;;;;19.42;84.86;101561.81;5178992;27;20046;-58
2022/07/31 02:04:51;;;;;;;5.35;2.70;;;;;;;19.39;86.24;101560.28;5177962;27;20130;-60
2022/07/31 02:07:21;;;;;;;4.40;2.55;;;;;;;19.36;86.04;101560.56;5174258;27;20117;-60
2022/07/31 02:09:51;;;;;;;5.63;3.25;;;;;;;19.41;85.34;101558.34;5177864;27;20050;-58
2022/07/31 02:12:27;;;;;;;5.90;3.17;;;;;;;19.36;85.94;101551.72;5178606;27;20052;-59
2022/07/31 02:15:04;;;;;;;8.00;3.10;;;;;;;19.36;86.47;101549.03;5179121;27;20122;-60
2022/07/31 02:17:33;;;;;;;6.95;3.70;;;;;;;19.34;87.28;101546.53;5178627;27;20040;-60
2022/07/31 02:20:05;;;;;;;6.05;3.03;;;;;;;19.33;88.02;101552.81;5178574;27;20034;-59
2022/07/31 02:22:34;;;;;;;6.13;3.22;;;;;;;19.35;88.16;101555.38;5178412;27;20404;-59
2022/07/31 02:25:02;;;;;;;6.00;3.40;;;;;;;19.30;88.54;101547.78;5178858;27;20058;-58
2022/07/31 02:27:31;;;;;;;8.93;3.10;;;;;;;19.34;88.40;101556.34;5178502;27;20508;-60
2022/07/31 02:30:21;;;;;;;5.22;3.33;;;;;;;19.41;87.73;101547.66;5178318;27;20038;-58
2022/07/31 02:32:50;;;;;;;6.18;3.30;;;;;;;19.33;89.13;101547.50;5178285;27;20376;-60
2022/07/31 02:35:19;;;;;;;6.60;3.78;;;;;;;19.29;89.14;101546.09;5178091;27;20046;-59
2022/07/31 02:37:50;;;;;;;5.40;3.72;;;;;;;19.23;90.16;101549.34;5178312;27;20042;-58
2022/07/31 02:40:19;;;;;;;7.55;3.80;;;;;;;19.25;90.03;101542.88;5178000;27;20042;-58
2022/07/31 02:42:48;;;;;;;6.68;3.40;;;;;;;19.27;89.80;101550.75;5178139;27;20137;-59
2022/07/31 02:45:17;;;;;;;8.10;3.72;;;;;;;19.29;89.42;101539.94;5177874;27;20049;-59
2022/07/31 02:47:47;;;;;;;8.05;3.50;;;;;;;19.25;89.34;101550.03;5177628;27;20079;-58
2022/07/31 02:50:17;;;;;;;8.82;4.15;;;;;;;19.17;88.84;101544.53;5177643;27;20050;-60
2022/07/31 02:52:47;;;;;;;6.18;3.97;;;;;;;19.18;89.09;101546.25;5177488;27;20052;-59
2022/07/31 02:55:17;;;;;;;7.80;3.55;;;;;;;19.18;88.98;101538.25;5177787;27;20046;-60
2022/07/31 02:57:46;;;;;;;10.35;3.40;;;;;;;19.21;89.60;101545.94;5176219;27;20050;-59
2022/07/31 03:00:21;;;;;;;5.75;3.25;;;;;;;19.21;89.27;101537.94;5174442;27;20045;-59
2022/07/31 03:02:52;;;;;;;7.25;3.65;;;;;;;19.21;90.03;101537.94;5177663;27;20121;-59
2022/07/31 03:05:21;;;;;;;5.93;3.42;;;;;;;19.21;89.92;101529.94;5176702;27;20068;-60
2022/07/31 03:07:49;;;;;;;6.18;3.35;;;;;;;19.17;90.14;101528.56;5177726;27;20077;-59
2022/07/31 03:10:17;;;;;;;8.07;3.42;;;;;;;19.16;90.27;101530.38;5175272;27;20042;-58
2022/07/31 03:12:50;;;;;;;6.80;3.35;;;;;;;19.21;90.92;101529.94;5174656;27;20038;-59
2022/07/31 03:15:20;;;;;;;;;;;;;;;19.28;90.12;101522.25;5177630;27;20042;-58
2022/07/31 03:17:50;;;;;;;10.00;3.78;;;;;;;19.25;90.08;101531.34;5158308;27;19986;-59
2022/07/31 03:20:20;;;;;;;7.05;3.80;;;;;;;19.19;90.60;101521.28;5176982;27;20051;-60
2022/07/31 03:22:49;;;;;;;7.85;3.53;;;;;;;19.27;90.83;101516.06;5177229;27;20519;-59
2022/07/31 03:25:18;;;;;;;6.72;3.50;;;;;;;19.19;90.27;101511.44;5176972;27;20476;-58
2022/07/31 03:27:49;;;;;;;8.07;3.67;;;;;;;19.19;89.90;101507.94;5177150;27;20095;-60
2022/07/31 03:30:24;;;;;;;8.23;3.78;;;;;;;19.28;90.44;101504.44;5177110;27;20053;-60
2022/07/31 03:32:53;;;;;;;9.18;3.55;;;;;;;19.22;89.99;101503.19;5177020;27;20132;-59
2022/07/31 03:35:23;;;;;;;7.25;3.65;;;;;;;19.18;89.76;101500.91;5177254;27;20069;-58
2022/07/31 03:37:51;;;;;;;7.10;3.25;;;;;;;19.20;90.64;101507.78;5176859;27;20046;-58
2022/07/31 03:40:20;;;;;;;6.60;3.38;;;;;;;19.23;90.58;101504.84;5176934;27;20129;-59
2022/07/31 03:42:49;;;;;;;5.68;3.45;;;;;;;19.22;90.74;101500.50;5176742;27;20406;-59
2022/07/31 03:45:19;;;;;;;11.13;3.42;;;;;;;19.19;90.44;101495.44;5174926;27;20042;-58
2022/07/31 03:47:47;;;;;;;5.97;3.67;;;;;;;19.16;91.24;101500.22;5174059;27;20073;-58
2022/07/31 03:50:16;;;;;;;6.13;3.40;;;;;;;19.16;91.86;101501.06;5176205;27;20065;-59
2022/07/31 03:52:47;;;;;;;6.22;3.58;;;;;;;19.20;92.14;101512.28;5158157;27;20042;-60
2022/07/31 03:55:15;;;;;;;4.82;3.20;;;;;;;19.16;91.86;101495.72;5176614;27;20472;-60
2022/07/31 03:57:44;;;;;;;7.03;3.67;;;;;;;19.14;92.54;101497.72;5176908;27;20038;-59
2022/07/31 04:00:16;;;;;;;6.57;3.67;;;;;;;19.19;93.07;101503.44;5176726;27;20038;-59
2022/07/31 04:02:45;;;;;;;7.93;4.25;;;;;;;19.17;94.07;101497.41;5174249;27;20038;-60
2022/07/31 04:05:14;;;;;;;6.95;4.28;;;;;;;19.14;94.56;101499.50;5174015;27;20046;-59
2022/07/31 04:07:42;;;;;;;9.25;4.30;;;;;;;19.15;94.56;101503.88;5176396;27;20527;-59
2022/07/31 04:10:11;;;;;;;8.45;4.70;;;;;;;19.19;94.17;101490.09;5176343;27;20069;-59
2022/07/31 04:12:40;;;;;;;7.78;3.80;;;;;;;19.18;93.17;101488.44;5176228;27;20113;-59
2022/07/31 04:15:08;;;;;;;9.20;4.35;;;;;;;19.17;93.39;101493.91;5176043;27;20038;-59
2022/07/31 04:17:37;;;;;;;7.55;4.53;;;;;;;19.19;93.64;101495.44;5176041;27;20049;-59
2022/07/31 04:20:06;;;;;;;8.23;4.72;;;;;;;19.15;92.59;101510.03;5173459;27;20050;-59
2022/07/31 04:22:34;;;;;;;10.00;4.95;;;;;;;19.14;94.11;101502.19;5172970;27;20038;-59
2022/07/31 04:25:04;;;;;;;7.75;5.00;;;;;;;19.17;94.02;101507.22;5175978;27;20138;-59
2022/07/31 04:27:35;;;;;;;9.27;5.45;;;;;;;19.16;94.37;101501.06;5173585;27;20057;-59
2022/07/31 04:30:15;;;;;;;10.13;6.28;;;;;;;19.15;94.30;101504.69;5155014;27;20046;-60
2022/07/31 04:32:44;;;;;;;10.40;6.38;;;;;;;19.15;94.58;101506.53;5175948;27;20038;-59
2022/07/31 04:35:12;;;;;;;9.68;6.88;;;;;;;19.21;94.43;101505.97;5176055;27;20524;-60
2022/07/31 04:37:40;;;;;;;10.05;7.15;;;;;;;19.16;94.97;101510.91;5175785;27;20039;-59
2022/07/31 04:40:15;;;;;;;12.55;7.18;;;;;;;19.14;94.75;101502.19;5154298;27;20054;-59
2022/07/31 04:42:45;;;;;;;11.63;7.80;;;;;;;19.10;95.00;101501.59;5154678;27;20041;-59
2022/07/31 04:45:13;;;;;;;10.88;7.18;;;;;;;19.14;95.41;101513.72;5175470;27;20050;-59
2022/07/31 04:47:41;;;;;;;10.88;7.70;;;;;;;19.14;95.45;101507.50;5175316;27;20414;-59
2022/07/31 04:50:09;;;;;;;12.52;8.07;;;;;;;19.06;95.43;101506.41;5175695;27;20042;-59
2022/07/31 04:52:37;;;;;;;14.02;8.15;;;;;;;19.11;95.52;101508.63;5172028;27;20038;-59
2022/07/31 04:55:06;;;;;;;15.05;8.88;;;;;;;19.12;96.06;101507.66;5173243;27;20362;-59
2022/07/31 04:57:34;;;;;;;12.52;7.90;;;;;;;19.15;96.06;101518.03;5175509;27;20102;-59
2022/07/31 05:00:05;;;;;;;11.57;7.75;;;;;;;19.22;96.51;101510.31;5175441;27;20407;-60
2022/07/31 05:02:33;;;;;;;11.82;7.75;;;;;;;19.24;96.40;101511.03;5154995;27;20050;-60
2022/07/31 05:05:01;;;;;;;11.35;7.30;;;;;;;19.25;96.21;101515.34;5172522;27;20457;-60
2022/07/31 05:07:29;;;;;;;10.45;7.22;;;;;;;19.25;96.81;101510.03;5174057;27;20048;-59
2022/07/31 05:09:58;;;;;;;11.85;7.50;;;;;;;19.22;97.14;101507.66;5175377;27;20453;-59
2022/07/31 05:12:26;;;;;;;12.00;7.35;;;;;;;19.23;97.31;101512.00;5173810;27;20094;-60
2022/07/31 05:14:54;;;;;;;12.43;6.82;;;;;;;19.22;97.82;101505.84;5153820;27;20042;-60
2022/07/31 05:17:24;;;;;;;11.07;6.72;;;;;;;19.18;98.37;101501.78;5155418;27;20046;-60
2022/07/31 05:19:52;;;;;;;10.35;6.97;;;;;;;19.30;98.44;101497.13;5174996;27;20046;-60
2022/07/31 05:22:20;;;;;;;11.40;6.40;;;;;;;19.36;99.10;101507.22;5174558;27;20501;-59
2022/07/31 05:24:48;;;;;;;9.63;5.65;;;;;;;19.42;98.54;101498.66;5173705;27;20094;-60
2022/07/31 05:27:16;;;;;;;12.48;7.18;;;;;;;19.49;98.34;101506.94;5171375;27;20038;-59
2022/07/31 05:29:44;;;;;;;13.27;6.90;;;;;;;19.47;97.54;101498.25;5173866;27;20386;-60
2022/07/31 05:32:12;;;;;;;12.77;7.68;;;;;;;19.35;98.83;101499.38;5174865;27;20038;-60
2022/07/31 05:34:42;;;;;;;13.45;7.28;;;;;;;19.49;98.51;101495.44;5174513;27;20445;-60
2022/07/31 05:37:10;;;;;;;11.38;7.60;;;;;;;19.58;99.25;101502.59;5174790;27;20366;-61
2022/07/31 05:39:38;;;;;;;14.82;9.05;;;;;;;19.64;98.86;101496.66;5174893;27;20042;-60
2022/07/31 05:42:07;;;;;;;10.93;7.70;;;;;;;19.72;98.31;101502.09;5174621;27;20069;-59
2022/07/31 05:44:35;;;;;;;15.10;9.70;;;;;;;19.86;98.03;101502.69;5174568;27;20042;-59
2022/07/31 05:47:06;;;;;;;12.00;9.25;;;;;;;19.91;97.78;101497.75;5171963;27;20046;-60
2022/07/31 05:49:35;;;;;;;15.57;10.30;;;;;;;19.89;97.46;101503.25;5130952;28;20043;-60
2022/07/31 05:52:05;;;;;;;14.63;8.98;;;;;;;19.98;97.64;101501.50;5132808;27;20051;-58
2022/07/31 05:54:33;;;;;;;14.93;9.65;;;;;;;19.95;96.23;101493.81;5131713;28;20072;-57
2022/07/31 05:57:01;;;;;;;15.18;10.10;;;;;;;20.01;95.57;101506.56;5133096;27;20051;-59
2022/07/31 05:59:31;;;;;;;13.00;8.80;;;;;;;20.06;96.46;101498.94;5133247;27;20074;-59
2022/07/31 06:01:59;;;;;;;12.90;8.80;;;;;;;20.05;94.91;101512.44;5132915;27;20052;-59
2022/07/31 06:04:27;;;;;;;13.75;9.50;;;;;;;20.10;93.40;101510.19;5132469;28;20096;-59
2022/07/31 06:06:55;;;;;;;12.30;8.70;;;;;;;20.14;94.25;101516.06;5132409;27;20077;-58
2022/07/31 06:09:25;;;;;;;15.68;9.93;;;;;;;20.03;93.98;101509.94;5131583;28;20044;-60
2022/07/31 06:11:53;;;;;;;14.85;10.23;;;;;;;20.02;93.88;101518.91;5133004;28;20050;-58
2022/07/31 06:14:22;;;;;;;14.75;10.23;;;;;;;20.10;93.64;101521.69;5130175;27;20043;-59
2022/07/31 06:16:51;;;;;;;18.88;12.02;;;;;;;20.02;92.98;101515.41;5130820;27;20039;-58
2022/07/31 06:19:21;;;;;;;15.52;9.90;;;;;;;20.00;93.87;101526.25;5132954;28;20452;-59
2022/07/31 06:21:51;;;;;;;13.73;10.55;;;;;;;20.01;92.48;101517.22;5132749;28;20043;-59
2022/07/31 06:24:32;;;;;;;16.98;11.43;;;;;;;19.97;92.63;101517.69;5132597;27;20043;-59
2022/07/31 06:27:01;;;;;;;18.60;11.80;;;;;;;19.98;92.63;101517.53;5129660;27;20043;-63
2022/07/31 06:29:29;;;;;;;21.33;12.18;;;;;;;19.91;92.91;101519.09;5130678;28;20069;-58
2022/07/31 06:32:09;;;;;;;15.23;11.40;;;;;;;19.94;93.86;101518.81;5132671;28;20047;-58
2022/07/31 06:34:37;;;;;;;19.10;13.05;;;;;;;19.91;93.34;101514.59;5132290;27;20554;-59
2022/07/31 06:37:05;;;;;;;15.63;11.88;;;;;;;19.99;93.96;101523.69;5132280;27;20489;-61
2022/07/31 06:39:35;;;;;;;16.10;11.68;;;;;;;20.04;93.73;101519.63;5133808;27;20055;-59
2022/07/31 06:42:27;;;;;;;18.42;12.82;;;;;;;20.05;94.42;101521.28;5135466;27;20092;-58
2022/07/31 06:44:55;;;;;;;16.13;12.63;;;;;;;20.05;93.88;101521.28;5137292;27;20051;-59
2022/07/31 06:47:25;;;;;;;17.73;12.50;;;;;;;20.04;95.52;101511.63;5142169;27;20055;-59
2022/07/31 06:49:54;;;;;;;17.40;13.70;;;;;;;20.10;94.71;101513.69;5178298;27;20046;-59
2022/07/31 06:52:23;;;;;;;16.98;12.55;;;;;;;20.14;95.56;101510.72;5178344;27;20050;-58
2022/07/31 06:54:52;;;;;;;18.52;12.45;;;;;;;20.23;95.04;101508.03;5178452;27;20039;-59
2022/07/31 06:57:20;;;;;;;17.70;12.77;;;;;;;20.16;94.28;101498.91;5157581;27;20046;-59
2022/07/31 06:59:48;;;;;;;18.88;14.38;;;;;;;20.07;95.21;101497.97;5175729;27;20069;-60
2022/07/31 07:02:16;;;;;;;18.02;13.18;;;;;;;20.18;95.15;101501.44;5177775;27;20382;-59
2022/07/31 07:04:44;;;;;;;16.63;12.65;;;;;;;20.30;94.83;101496.75;5178003;27;20042;-59
2022/07/31 07:07:35;;;;;;;18.05;12.70;;;;;;;20.30;93.76;101505.63;5177841;27;20592;-58
2022/07/31 07:10:06;;;;;;;18.63;13.80;;;;;;;20.09;94.78;101504.00;5178224;27;20050;-60
2022/07/31 07:12:34;;;;;;;17.17;12.57;;;;;;;20.22;95.05;101495.66;5175480;27;20481;-59
2022/07/31 07:15:02;;;;;;;18.63;12.75;;;;;;;20.34;94.40;101498.13;5175527;27;20118;-59
2022/07/31 07:17:30;;;;;;;18.50;12.57;;;;;;;20.34;93.86;101490.13;5177326;27;20038;-60
2022/07/31 07:19:58;;;;;;;16.35;12.27;;;;;;;20.27;93.81;101484.53;5177338;27;20069;-58
2022/07/31 07:22:27;;;;;;;16.13;12.25;;;;;;;20.25;94.29;101487.34;5177293;27;20752;-60
2022/07/31 07:24:59;;;;;;;17.33;11.63;;;;;;;20.32;94.57;101495.59;5177583;27;20362;-58
2022/07/31 07:27:29;;;;;;;18.17;12.55;;;;;;;20.42;93.61;101491.06;5177240;27;20050;-59
2022/07/31 07:29:58;;;;;;;16.98;12.00;;;;;;;20.41;93.37;101499.19;5177331;27;20042;-58
2022/07/31 07:32:26;;;;;;;15.23;11.45;;;;;;;20.48;93.26;101496.78;5176959;27;20054;-60
2022/07/31 07:34:55;;;;;;;17.80;11.55;;;;;;;20.55;93.27;101489.88;5175586;27;20079;-59
2022/07/31 07:37:27;;;;;;;17.95;11.20;;;;;;;20.55;93.34;101487.19;5172984;27;20054;-58
2022/07/31 07:39:56;;;;;;;16.05;11.10;;;;;;;20.60;92.59;101485.75;5177109;27;20042;-59
2022/07/31 07:42:32;;;;;;;15.07;10.70;;;;;;;20.68;94.79;101495.72;5177056;27;20050;-59
2022/07/31 07:45:00;;;;;;;17.35;10.60;;;;;;;20.81;94.67;101489.19;5177009;27;20038;-59
2022/07/31 07:47:35;;;;;;;15.85;11.07;;;;;;;20.77;94.29;101496.66;5176503;27;20051;-60
2022/07/31 07:50:23;;;;;;;13.90;10.10;;;;;;;20.80;94.69;101487.50;5176149;27;20386;-60
2022/07/31 07:52:56;;;;;;;17.73;10.30;;;;;;;20.73;93.39;101489.91;5177125;27;20509;-60
2022/07/31 07:55:25;;;;;;;15.65;9.70;;;;;;;20.76;93.91;101492.28;5157952;27;20477;-59
2022/07/31 07:57:54;;;;;;;13.57;9.95;;;;;;;20.76;93.48;101494.97;5176797;27;20052;-59
2022/07/31 08:00:23;;;;;;;13.68;8.80;;;;;;;20.87;93.96;101493.91;5176602;27;20121;-60
2022/07/31 08:02:53;;;;;;;14.77;9.73;;;;;;;20.94;93.16;101490.47;5176765;27;20038;-60
2022/07/31 08:05:41;;;;;;;13.80;9.30;;;;;;;20.98;92.60;101487.50;5176667;27;20038;-59
2022/07/31 08:08:09;;;;;;;12.68;8.90;;;;;;;21.02;92.80;101488.88;5176357;27;20038;-59
2022/07/31 08:10:38;;;;;;;13.68;9.40;;;;;;;20.96;93.53;101484.97;5176379;27;20058;-60
2022/07/31 08:13:07;;;;;;;17.00;9.68;;;;;;;21.02;93.74;101487.00;5176195;27;20054;-60
2022/07/31 08:15:35;;;;;;;12.93;9.55;;;;;;;20.97;93.02;101489.34;5175471;27;20069;-60
2022/07/31 08:18:03;;;;;;;13.70;9.45;;;;;;;21.04;93.25;101487.72;5173543;27;20095;-59
2022/07/31 08:20:32;;;;;;;15.63;9.35;;;;;;;21.06;93.44;101485.72;5174735;27;20050;-60
2022/07/31 08:23:00;;;;;;;15.68;9.48;;;;;;;21.12;93.37;101486.97;5176103;27;20099;-59
2022/07/31 08:25:28;;;;;;;15.73;9.10;;;;;;;21.21;92.19;101488.69;5176092;27;20445;-60
2022/07/31 08:27:59;;;;;;;15.38;9.27;;;;;;;21.18;92.55;101477.47;5175728;27;20046;-60
2022/07/31 08:30:29;;;;;;;13.45;9.13;;;;;;;21.19;92.81;101484.50;5174638;27;20049;-60
2022/07/31 08:32:58;;;;;;;15.15;9.40;;;;;;;21.13;93.25;101475.25;5173638;27;20060;-59
2022/07/31 08:35:28;;;;;;;14.05;8.95;;;;;;;21.23;92.40;101485.88;5174961;27;20381;-58
2022/07/31 08:37:56;;;;;;;14.43;9.13;;;;;;;21.37;91.44;101479.97;5175602;27;20042;-59
2022/07/31 08:40:31;;;;;;;13.32;8.93;;;;;;;21.42;91.21;101482.19;5175538;27;20129;-59
2022/07/31 08:43:10;;;;;;;15.10;8.77;;;;;;;21.40;91.09;101470.78;5175851;27;20123;-59
2022/07/31 08:46:02;;;;;;;14.02;8.43;;;;;;;21.66;91.65;101470.81;5175769;27;20077;-59
2022/07/31 08:48:32;;;;;;;11.90;8.20;;;;;;;21.81;90.17;101468.41;5175410;27;20054;-60
2022/07/31 08:51:03;;;;;;;12.63;7.90;;;;;;;21.84;89.12;101478.81;5175543;27;20053;-59
2022/07/31 08:53:34;;;;;;;11.95;7.35;;;;;;;22.01;89.12;101477.03;5175379;27;20042;-59
2022/07/31 08:56:03;;;;;;;12.52;7.53;;;;;;;22.00;88.33;101478.03;5175385;27;20050;-59
2022/07/31 08:58:31;;;;;;;13.35;7.25;;;;;;;22.16;87.27;101471.09;5175138;27;20685;-58
2022/07/31 09:01:07;;;;;;;14.88;7.45;;;;;;;22.27;87.33;101474.31;5174612;27;20046;-58
2022/07/31 09:03:36;;;;;;;12.90;7.75;;;;;;;22.36;85.83;101469.84;5174863;27;20527;-58
2022/07/31 09:06:04;;;;;;;13.10;7.68;;;;;;;22.60;86.91;101470.91;5173434;27;20144;-59
2022/07/31 09:08:33;;;;;;;11.77;7.93;;;;;;;22.59;84.93;101464.72;5172205;27;20046;-59
2022/07/31 09:11:03;;;;;;;11.90;8.23;;;;;;;22.67;85.47;101466.56;5174417;27;20438;-58
2022/07/31 09:13:34;;;;;;;13.70;8.30;;;;;;;22.98;84.51;101459.75;5172606;27;20523;-59
2022/07/31 09:16:03;;;;;;;12.80;8.52;;;;;;;22.93;84.67;101465.59;5154295;27;20092;-60
2022/07/31 09:18:33;;;;;;;14.02;8.85;;;;;;;23.02;84.44;101463.78;5156109;27;20500;-60
2022/07/31 09:21:04;;;;;;;12.57;8.13;;;;;;;22.94;84.40;101465.44;5172926;27;20080;-58
2022/07/31 09:23:33;;;;;;;18.08;9.10;;;;;;;22.88;83.44;101457.25;5171574;27;20046;-59
2022/07/31 09:26:04;;;;;;;13.55;9.23;;;;;;;23.09;83.12;101451.38;5174745;27;20093;-61
2022/07/31 09:28:33;;;;;;;12.80;8.50;;;;;;;23.10;82.24;101463.78;5174725;27;20042;-59
2022/07/31 09:31:03;;;;;;;13.30;8.80;;;;;;;22.88;83.02;101458.06;5156547;27;20046;-59
2022/07/31 09:33:33;;;;;;;11.82;8.00;;;;;;;23.15;83.27;101461.47;5174835;27;20489;-61
2022/07/31 09:36:01;;;;;;;11.27;7.57;;;;;;;23.40;82.51;101459.59;5173211;27;20389;-58
2022/07/31 09:38:32;;;;;;;10.65;7.43;;;;;;;23.57;81.39;101454.19;5171415;27;20038;-61
2022/07/31 09:41:13;;;;;;;14.13;7.22;;;;;;;23.67;79.45;101454.00;5174607;27;20080;-61
2022/07/31 09:44:03;;;;;;;11.90;8.27;;;;;;;23.78;79.25;101459.84;5174699;27;20106;-58
2022/07/31 09:46:41;;;;;;;11.73;7.55;;;;;;;23.93;80.10;101459.16;5174634;27;20047;-59
2022/07/31 09:49:11;;;;;;;14.00;7.75;;;;;;;23.98;82.84;101467.53;5155926;27;20042;-59
2022/07/31 09:51:40;;;;;;;12.23;8.50;;;;;;;23.89;81.91;101461.34;5174596;27;20512;-60
2022/07/31 09:54:20;;;;;;;13.40;8.65;;;;;;;23.55;82.80;101467.78;5174725;27;20054;-59
2022/07/31 09:56:49;;;;;;;14.98;8.07;;;;;;;23.67;85.29;101470.97;5174854;27;20102;-59
2022/07/31 09:59:17;;;;;;;15.02;8.93;;;;;;;23.72;85.55;101471.25;5174576;27;20121;-61
2022/07/31 10:01:48;;;;;;;12.90;9.43;;;;;;;23.58;86.30;101477.34;5174631;27;20053;-61
2022/07/31 10:04:19;;;;;;;14.43;9.32;;;;;;;23.42;87.05;101468.31;5174429;27;20071;-59
2022/07/31 10:06:49;;;;;;;17.42;9.27;;;;;;;23.23;89.40;101471.34;5174557;27;20400;-60
2022/07/31 10:09:19;;;;;;;13.68;9.18;;;;;;;23.44;92.72;101470.84;5174195;27;20077;-60
2022/07/31 10:11:49;;;;;;;16.42;10.57;;;;;;;23.17;91.03;101470.16;5174407;27;20034;-62
2022/07/31 10:14:24;;;;;;;13.75;9.85;;;;;;;23.23;93.91;101472.19;5177711;27;20355;-58
2022/07/31 10:16:54;;;;;;;16.42;10.57;;;;;;;23.34;93.90;101476.38;5178757;27;20110;-59
2022/07/31 10:19:27;;;;;;;16.67;10.88;;;;;;;23.30;93.82;101469.66;5178833;27;20043;-58
2022/07/31 10:22:00;;;;;;;15.85;11.07;;;;;;;23.02;97.62;101464.59;5178750;27;20042;-58
2022/07/31 10:24:31;;;;;;;;;;;;;;;23.18;98.96;101463.81;5175982;27;20497;-58
2022/07/31 10:27:00;;;;;;;14.75;11.13;;;;;;;23.08;97.13;101455.91;5176290;27;19926;-58
2022/07/31 10:29:37;;;;;;;16.52;10.88;;;;;;;23.10;98.88;101463.78;5178196;27;20038;-58
2022/07/31 10:32:07;;;;;;;17.15;11.82;;;;;;;23.19;100.00;101459.28;5178583;27;20046;-59
2022/07/31 10:34:36;;;;;;;18.15;12.48;;;;;;;23.04;100.00;101448.34;5178003;27;20074;-58
2022/07/31 10:37:11;;;;;;;18.60;12.38;;;;;;;22.98;100.00;101449.84;5174533;27;20072;-59
2022/07/31 10:39:49;;;;;;;17.52;12.52;;;;;;;23.02;100.00;101451.19;5176725;27;20069;-59
2022/07/31 10:42:31;;;;;;;16.08;12.02;;;;;;;23.14;100.00;101446.38;5178139;27;20473;-59
2022/07/31 10:45:05;;;;;;;17.13;13.00;;;;;;;22.97;100.00;101448.16;5178265;27;20137;-59
2022/07/31 10:47:34;;;;;;;16.63;11.88;;;;;;;22.86;100.00;101443.97;5177108;27;20050;-59
2022/07/31 10:50:04;;;;;;;16.50;11.60;;;;;;;23.07;99.36;101448.00;5176082;27;20056;-60
2022/07/31 10:52:35;;;;;;;14.25;11.80;;;;;;;22.99;99.98;101450.69;5175610;27;20050;-59
2022/07/31 10:55:15;;;;;;;15.27;11.73;;;;;;;23.17;100.00;101440.66;5159444;27;20042;-59
2022/07/31 10:57:43;;;;;;;14.90;12.25;;;;;;;23.07;100.00;101432.75;5178087;27;20049;-60
2022/07/31 11:00:27;;;;;;;17.65;12.38;;;;;;;23.31;100.00;101432.94;5177734;27;20493;-59
2022/07/31 11:02:57;;;;;;;16.73;12.85;;;;;;;23.15;98.02;101431.09;5176624;27;20050;-60
2022/07/31 11:05:27;;;;;;;14.80;11.15;;;;;;;23.37;99.22;101426.88;5174047;27;20125;-61
2022/07/31 11:08:02;;;;;;;13.90;10.88;;;;;;;23.50;98.15;101431.72;5177164;27;20049;-60
2022/07/31 11:10:32;;;;;;;15.35;11.80;;;;;;;23.48;96.49;101433.75;5177584;27;20042;-60
2022/07/31 11:13:02;;;;;;;13.82;11.00;;;;;;;23.54;93.97;101435.75;5177631;27;20098;-59
2022/07/31 11:15:31;;;;;;;14.25;10.85;;;;;;;23.38;94.84;101432.09;5177323;27;20445;-61
2022/07/31 11:18:10;;;;;;;13.98;10.57;;;;;;;23.50;94.59;101432.56;5158642;27;20124;-62
2022/07/31 11:21:00;;;;;;;14.63;11.63;;;;;;;23.52;94.60;101433.25;5173796;27;20146;-62
2022/07/31 11:23:48;;;;;;;14.80;12.40;;;;;;;23.50;95.23;101427.19;5175698;27;20046;-60
2022/07/31 11:26:31;;;;;;;14.73;12.65;;;;;;;23.27;99.15;101427.91;5157833;27;20102;-59
2022/07/31 11:29:09;;;;;;;15.90;13.07;;;;;;;23.24;100.00;101430.09;5174802;27;20590;-61
2022/07/31 11:32:00;;;;;;;16.15;13.38;;;;;;;22.89;100.00;101421.34;5175722;27;20065;-58
2022/07/31 11:34:28;;;;;;;17.27;12.82;;;;;;;23.12;100.00;101413.47;5175390;27;20042;-59
2022/07/31 11:36:58;;;;;;;14.65;12.32;;;;;;;23.33;100.00;101407.63;5173497;27;20034;-59